Time;durP1;ratioP1;P1;durP2;ratioP2;P2;SDS_P1;SDS_P2;PMS_P1;PMS_P2;Temp;Humidity;BMP_temperature;BMP_pressure;BME280_temperature;BME280_humidity;BME280_pressure;Samples;Min_cycle;Max_cycle;Signal;HPM_P1;HPM_P2
2022/11/19 00:00:54;;;;;;;12.90;6.00;;;1.50;99.90;;;;;;4892368;29;20059;-71
2022/11/19 00:03:21;;;;;;;10.70;4.55;;;1.50;99.90;;;;;;4884847;29;20498;-71
2022/11/19 00:05:49;;;;;;;12.52;5.55;;;1.50;99.90;;;;;;4889075;29;20052;-72
2022/11/19 00:08:19;;;;;;;9.68;4.57;;;1.50;99.90;;;;;;4880288;29;20093;-71
2022/11/19 00:10:46;;;;;;;11.52;5.05;;;1.50;99.90;;;;;;4882343;29;20092;-70
2022/11/19 00:13:13;;;;;;;12.82;5.07;;;1.50;99.90;;;;;;4880901;29;20076;-71
2022/11/19 00:15:39;;;;;;;11.75;5.47;;;1.50;99.90;;;;;;4879776;29;20064;-71
2022/11/19 00:18:06;;;;;;;11.52;5.63;;;1.50;99.90;;;;;;4887858;29;20063;-71
2022/11/19 00:20:33;;;;;;;12.88;5.57;;;1.50;99.90;;;;;;4892071;29;20052;-70
2022/11/19 00:22:59;;;;;;;14.43;5.93;;;1.50;99.90;;;;;;4890600;29;20051;-71
2022/11/19 00:25:27;;;;;;;13.32;5.15;;;1.70;99.90;;;;;;4893717;29;20052;-76
2022/11/19 00:27:53;;;;;;;9.02;4.68;;;1.50;99.90;;;;;;4886765;29;20048;-71
2022/11/19 00:30:19;;;;;;;12.27;5.30;;;1.50;99.90;;;;;;4894662;29;20523;-70
2022/11/19 00:32:45;;;;;;;11.07;4.63;;;1.40;99.90;;;;;;4906989;29;20181;-71
2022/11/19 00:35:12;;;;;;;8.65;4.13;;;1.40;99.90;;;;;;4890984;29;20045;-70
2022/11/19 00:37:37;;;;;;;;;;;1.40;99.90;;;;;;4887295;29;20144;-71
2022/11/19 00:40:06;;;;;;;8.40;3.63;;;1.40;99.90;;;;;;4894994;29;20449;-71
2022/11/19 00:42:32;;;;;;;9.93;4.35;;;1.30;99.90;;;;;;4891550;29;20060;-70
2022/11/19 00:44:58;;;;;;;9.20;3.97;;;1.30;99.90;;;;;;4909335;29;20071;-71
2022/11/19 00:47:24;;;;;;;8.65;3.92;;;1.50;99.90;;;;;;4893751;29;20052;-71
2022/11/19 00:49:49;;;;;;;8.75;3.72;;;1.30;99.90;;;;;;4892342;29;20072;-70
2022/11/19 00:52:15;;;;;;;10.10;4.00;;;1.30;99.90;;;;;;4889420;29;20049;-70
2022/11/19 00:54:41;;;;;;;8.07;3.40;;;1.30;99.90;;;;;;4889034;29;20043;-70
2022/11/19 00:57:06;;;;;;;7.05;3.30;;;1.30;99.90;;;;;;4909168;29;20053;-70
2022/11/19 00:59:32;;;;;;;6.80;3.30;;;1.30;99.90;;;;;;4893869;29;20056;-70
2022/11/19 01:01:58;;;;;;;8.48;3.95;;;1.30;99.90;;;;;;4894608;29;20080;-71
2022/11/19 01:04:23;;;;;;;6.88;3.25;;;1.30;99.90;;;;;;4890122;29;20049;-71
2022/11/19 01:06:49;;;;;;;6.82;2.67;;;1.30;99.90;;;;;;4908039;29;20855;-70
2022/11/19 01:09:15;;;;;;;7.10;2.88;;;1.30;99.90;;;;;;4894038;29;20084;-71
2022/11/19 01:11:40;;;;;;;5.40;2.92;;;1.30;99.90;;;;;;4887263;29;20064;-71
2022/11/19 01:14:07;;;;;;;6.88;2.88;;;1.30;99.90;;;;;;4897769;29;20060;-70
2022/11/19 01:16:34;;;;;;;;;;;1.30;99.90;;;;;;4897782;29;20099;-76
2022/11/19 01:19:00;;;;;;;5.40;2.55;;;1.30;99.90;;;;;;4891187;29;19931;-72
2022/11/19 01:21:28;;;;;;;7.32;2.88;;;1.20;99.90;;;;;;4894780;29;20045;-70
2022/11/19 01:23:54;;;;;;;6.10;2.72;;;1.20;99.90;;;;;;4896614;29;20051;-70
2022/11/19 01:26:20;;;;;;;6.65;2.88;;;1.20;99.90;;;;;;4901415;29;20091;-71
2022/11/19 01:28:46;;;;;;;6.43;2.85;;;1.20;99.90;;;;;;4896582;29;20084;-71
2022/11/19 01:31:18;;;;;;;6.07;2.92;;;1.20;99.90;;;;;;4896618;29;20060;-72
2022/11/19 01:33:44;;;;;;;8.60;3.08;;;1.20;99.90;;;;;;4883119;29;20092;-71
2022/11/19 01:36:13;;;;;;;6.13;2.60;;;1.20;99.90;;;;;;4884971;29;20414;-70
2022/11/19 01:38:39;;;;;;;5.22;2.45;;;1.20;99.90;;;;;;4891195;29;20082;-72
2022/11/19 01:41:05;;;;;;;5.30;2.80;;;1.10;99.90;;;;;;4886372;29;20109;-72
2022/11/19 01:43:43;;;;;;;7.60;3.22;;;1.10;99.90;;;;;;4894341;29;20048;-70
2022/11/19 01:46:10;;;;;;;14.68;6.45;;;1.00;99.90;;;;;;4891987;29;20061;-70
2022/11/19 01:48:43;;;;;;;6.32;2.67;;;1.00;99.90;;;;;;4877893;29;20081;-75
2022/11/19 01:51:25;;;;;;;7.10;2.90;;;1.00;99.90;;;;;;4884433;29;20048;-70
2022/11/19 01:53:54;;;;;;;7.43;2.72;;;0.90;99.90;;;;;;4881665;29;20049;-70
2022/11/19 01:56:21;;;;;;;7.95;3.20;;;0.90;99.90;;;;;;4880391;29;20143;-69
2022/11/19 01:58:51;;;;;;;7.22;3.22;;;0.90;99.90;;;;;;4897227;29;20052;-69
2022/11/19 02:01:18;;;;;;;7.38;2.80;;;0.90;99.90;;;;;;4897886;29;20424;-69
2022/11/19 02:03:45;;;;;;;7.80;2.97;;;0.90;99.90;;;;;;4895638;29;20049;-69
2022/11/19 02:06:11;;;;;;;6.07;3.25;;;0.80;99.90;;;;;;4888560;29;20121;-69
2022/11/19 02:08:43;;;;;;;4.63;2.20;;;0.80;99.90;;;;;;4877833;29;20053;-72
2022/11/19 02:11:26;;;;;;;5.18;2.78;;;0.80;99.90;;;;;;4880252;29;20083;-70
2022/11/19 02:13:54;;;;;;;6.03;3.13;;;0.80;99.90;;;;;;4878279;29;20052;-69
2022/11/19 02:16:31;;;;;;;5.03;2.75;;;0.80;99.90;;;;;;4889458;29;20108;-70
2022/11/19 02:19:16;;;;;;;6.65;3.53;;;0.70;99.90;;;;;;4889757;29;20417;-71
2022/11/19 02:22:07;;;;;;;5.57;2.83;;;0.70;99.90;;;;;;4879153;29;20048;-72
2022/11/19 02:24:54;;;;;;;5.75;2.90;;;0.70;99.90;;;;;;4887606;29;20056;-69
2022/11/19 02:27:41;;;;;;;8.65;3.20;;;0.60;99.90;;;;;;4896868;29;20410;-69
2022/11/19 02:30:16;;;;;;;5.60;2.80;;;0.60;99.90;;;;;;4896840;29;20072;-68
2022/11/19 02:33:03;;;;;;;8.32;2.88;;;0.50;99.90;;;;;;4887247;29;20044;-70
2022/11/19 02:36:06;;;;;;;7.63;3.05;;;0.50;99.90;;;;;;4882506;29;20578;-71
2022/11/19 02:38:38;;;;;;;7.20;2.72;;;0.40;99.90;;;;;;4871202;29;20061;-69
2022/11/19 02:47:19;;;;;;;8.55;3.63;;;0.30;99.90;;;;;;4887583;29;20075;-69
2022/11/19 02:49:47;;;;;;;6.65;2.97;;;0.20;99.90;;;;;;4876225;29;20063;-69
2022/11/19 02:52:16;;;;;;;6.60;2.90;;;0.20;99.90;;;;;;4885093;29;20506;-69
2022/11/19 02:54:42;;;;;;;9.15;3.40;;;0.10;99.90;;;;;;4876304;29;20045;-73
2022/11/19 02:57:10;;;;;;;5.40;2.92;;;0.10;99.90;;;;;;4877876;29;20094;-69
2022/11/19 03:05:25;;;;;;;9.98;3.35;;;0.10;99.90;;;;;;4876205;29;20184;-69
2022/11/19 03:07:51;;;;;;;7.22;3.05;;;-0.10;99.90;;;;;;4876883;29;20067;-69
2022/11/19 03:10:18;;;;;;;9.85;3.10;;;-0.10;99.90;;;;;;4880432;29;20143;-69
2022/11/19 03:16:40;;;;;;;7.80;3.50;;;-0.10;99.90;;;;;;4875247;29;20076;-68
2022/11/19 03:19:36;;;;;;;6.25;2.97;;;-0.10;99.90;;;;;;4894756;29;20100;-70
2022/11/19 03:22:14;;;;;;;7.18;3.33;;;-0.10;99.90;;;;;;4882452;29;20135;-69
2022/11/19 03:24:44;;;;;;;7.03;3.33;;;-0.20;99.90;;;;;;4895958;29;20044;-69
2022/11/19 03:27:54;;;;;;;7.70;3.35;;;-0.20;99.90;;;;;;4876287;29;20067;-69
2022/11/19 03:30:20;;;;;;;8.13;3.10;;;-0.20;99.90;;;;;;4865080;29;20065;-69
2022/11/19 03:33:06;;;;;;;7.93;3.63;;;-0.20;99.90;;;;;;4884236;29;20048;-74
2022/11/19 03:35:39;;;;;;;7.60;3.10;;;-0.20;99.90;;;;;;4894048;29;20053;-69
2022/11/19 03:38:09;;;;;;;5.28;2.97;;;-0.20;99.90;;;;;;4895090;29;20416;-70
2022/11/19 03:40:36;;;;;;;7.53;3.08;;;-0.30;99.90;;;;;;4895857;29;20056;-71
2022/11/19 03:43:06;;;;;;;9.18;3.28;;;-0.30;99.90;;;;;;4891142;29;20057;-69
2022/11/19 03:45:38;;;;;;;7.20;2.88;;;-0.30;99.90;;;;;;4875711;29;20398;-69
2022/11/19 03:48:05;;;;;;;7.15;3.45;;;-0.30;99.90;;;;;;4884583;29;20611;-68
2022/11/19 03:50:48;;;;;;;7.72;3.20;;;-0.30;99.90;;;;;;4888836;29;20166;-69
2022/11/19 03:53:15;;;;;;;10.20;3.15;;;-0.30;99.90;;;;;;4889308;29;20396;-69
2022/11/19 03:55:59;;;;;;;7.38;3.13;;;-0.40;99.90;;;;;;4892758;29;20103;-69
2022/11/19 03:58:26;;;;;;;7.80;2.97;;;-0.40;99.90;;;;;;4895726;29;20052;-68
2022/11/19 04:00:52;;;;;;;5.47;2.72;;;-0.40;99.90;;;;;;4882027;29;20084;-69
2022/11/19 04:03:18;;;;;;;6.85;2.80;;;-0.40;99.90;;;;;;4876853;29;20063;-69
2022/11/19 04:05:44;;;;;;;6.38;2.70;;;-0.50;99.90;;;;;;4892203;29;20044;-69
2022/11/19 04:08:09;;;;;;;6.55;3.03;;;-0.50;99.90;;;;;;4888409;29;20072;-69
2022/11/19 04:10:35;;;;;;;6.32;2.83;;;-0.50;99.90;;;;;;4884004;29;20127;-69
2022/11/19 04:13:01;;;;;;;6.10;2.78;;;-0.50;99.90;;;;;;4893292;29;20056;-69
2022/11/19 04:15:27;;;;;;;5.45;2.72;;;-0.50;99.90;;;;;;4893778;29;20115;-69
2022/11/19 04:17:52;;;;;;;;;;;-0.50;99.90;;;;;;4879928;29;20057;-69
2022/11/19 04:20:18;;;;;;;5.55;2.58;;;-0.60;99.90;;;;;;4875685;29;20329;-69
2022/11/19 04:22:44;;;;;;;8.38;3.33;;;-0.60;99.90;;;;;;4881193;29;20073;-69
2022/11/19 04:25:10;;;;;;;6.70;3.25;;;-0.50;99.90;;;;;;4876135;29;20846;-69
2022/11/19 04:27:35;;;;;;;5.35;2.95;;;-0.60;99.90;;;;;;4876726;29;20474;-70
2022/11/19 04:30:01;;;;;;;5.32;2.92;;;-0.60;99.90;;;;;;4888846;29;20059;-69
2022/11/19 04:32:27;;;;;;;9.98;3.63;;;-0.60;99.90;;;;;;4893799;29;20092;-69
2022/11/19 04:34:52;;;;;;;8.23;2.92;;;-0.60;99.90;;;;;;4889042;29;20069;-73
2022/11/19 04:37:18;;;;;;;8.38;3.33;;;-0.50;99.90;;;;;;4876258;29;20057;-69
2022/11/19 04:39:44;;;;;;;4.78;2.90;;;-0.70;99.90;;;;;;4876778;29;20101;-68
2022/11/19 04:42:09;;;;;;;11.00;4.13;;;-0.70;99.90;;;;;;4875200;29;20705;-69
2022/11/19 04:44:35;;;;;;;5.88;3.13;;;-0.70;99.90;;;;;;4890711;29;20056;-69
2022/11/19 04:47:01;;;;;;;6.60;3.25;;;-0.80;99.90;;;;;;4877279;29;20052;-70
2022/11/19 04:49:26;;;;;;;5.70;3.25;;;-0.80;99.90;;;;;;4894128;29;20156;-69
2022/11/19 04:51:52;;;;;;;7.65;3.75;;;-0.80;99.90;;;;;;4896813;29;20061;-73
2022/11/19 04:54:18;;;;;;;6.47;3.38;;;-0.80;99.90;;;;;;4893959;29;20498;-69
2022/11/19 04:56:43;;;;;;;6.57;3.38;;;-0.80;99.90;;;;;;4898880;29;20466;-69
2022/11/19 04:59:09;;;;;;;7.85;3.45;;;-0.80;99.90;;;;;;4896846;29;20079;-69
2022/11/19 05:01:35;;;;;;;9.27;3.63;;;-0.80;99.90;;;;;;4882740;29;20075;-70
2022/11/19 05:04:01;;;;;;;7.90;3.58;;;-0.80;99.90;;;;;;4878420;29;20056;-69
2022/11/19 05:06:26;;;;;;;8.45;3.40;;;-0.80;99.90;;;;;;4878973;29;20503;-69
2022/11/19 05:08:52;;;;;;;8.77;3.97;;;-0.80;99.90;;;;;;4879452;29;20109;-69
2022/11/19 05:11:18;;;;;;;6.05;3.35;;;-0.90;99.90;;;;;;4886813;29;20113;-69
2022/11/19 05:13:44;;;;;;;8.63;3.30;;;-0.90;99.90;;;;;;4898186;29;20148;-70
2022/11/19 05:16:09;;;;;;;10.23;4.20;;;-0.90;99.90;;;;;;4897332;29;20052;-69
2022/11/19 05:18:35;;;;;;;8.73;3.33;;;-0.90;99.90;;;;;;4880247;29;20049;-70
2022/11/19 05:21:00;;;;;;;8.80;4.43;;;-0.90;99.90;;;;;;4877739;29;20471;-69
2022/11/19 05:23:26;;;;;;;9.80;4.00;;;-0.90;99.90;;;;;;4879169;29;20558;-69
2022/11/19 05:25:52;;;;;;;7.03;2.75;;;-0.90;99.90;;;;;;4878285;29;20053;-69
2022/11/19 05:28:17;;;;;;;8.30;3.80;;;-0.90;99.90;;;;;;4885214;29;20061;-69
2022/11/19 05:30:43;;;;;;;9.82;3.45;;;-0.90;99.90;;;;;;4878302;29;20060;-69
2022/11/19 05:33:09;;;;;;;10.27;4.40;;;-1.00;99.90;;;;;;4878768;29;20235;-69
2022/11/19 05:35:35;;;;;;;8.93;3.75;;;-1.00;99.90;;;;;;4877004;29;20053;-68
2022/11/19 05:38:00;;;;;;;7.45;4.00;;;-1.00;99.90;;;;;;4881379;29;20049;-69
2022/11/19 05:40:26;;;;;;;7.78;3.88;;;-1.00;99.90;;;;;;4877116;29;20051;-71
2022/11/19 05:42:52;;;;;;;;;;;-1.00;99.90;;;;;;4897417;29;20048;-69
2022/11/19 05:45:18;;;;;;;8.57;3.90;;;-1.00;99.90;;;;;;4882927;29;19931;-69
2022/11/19 05:47:43;;;;;;;8.95;4.10;;;-1.00;99.90;;;;;;4878387;29;20509;-69
2022/11/19 05:50:09;;;;;;;8.80;4.47;;;-1.00;99.90;;;;;;4894713;29;20045;-68
2022/11/19 05:52:35;;;;;;;9.32;4.25;;;-1.10;99.90;;;;;;4897371;29;20071;-70
2022/11/19 05:55:01;;;;;;;10.45;4.55;;;-1.00;99.90;;;;;;4896045;29;20136;-69
2022/11/19 05:57:27;;;;;;;;;;;-1.00;99.90;;;;;;4896283;29;20053;-68
2022/11/19 05:59:52;;;;;;;9.68;3.92;;;-1.10;99.90;;;;;;4879215;29;19931;-69
2022/11/19 06:02:18;;;;;;;10.02;4.22;;;-1.00;99.90;;;;;;4884379;29;20051;-70
2022/11/19 06:04:44;;;;;;;9.77;5.00;;;-1.10;99.90;;;;;;4908529;29;20136;-68
2022/11/19 06:07:10;;;;;;;13.43;5.28;;;-1.00;99.90;;;;;;4896205;29;20044;-69
2022/11/19 06:09:35;;;;;;;9.20;4.20;;;-1.10;99.90;;;;;;4887647;29;20055;-69
2022/11/19 06:12:01;;;;;;;10.90;4.68;;;-1.10;99.90;;;;;;4878236;29;20048;-73
2022/11/19 06:14:27;;;;;;;10.50;4.53;;;-1.00;99.90;;;;;;4876879;29;20072;-69
2022/11/19 06:16:56;;;;;;;12.18;5.00;;;-1.10;99.90;;;;;;4878319;29;20096;-69
2022/11/19 06:19:22;;;;;;;12.15;4.45;;;-1.20;99.90;;;;;;4876856;29;20717;-69
2022/11/19 06:21:49;;;;;;;13.02;4.57;;;-0.90;99.90;;;;;;4883829;29;20083;-69
2022/11/19 06:24:15;;;;;;;10.93;4.53;;;-1.20;99.90;;;;;;4894936;29;20044;-69
2022/11/19 06:26:41;;;;;;;;;;;-1.00;99.90;;;;;;4886990;29;20056;-70
2022/11/19 06:29:07;;;;;;;12.60;4.47;;;-1.20;99.90;;;;;;4891921;29;20275;-69
2022/11/19 06:31:33;;;;;;;9.80;4.32;;;-1.30;99.90;;;;;;4877826;29;20060;-69
2022/11/19 06:33:59;;;;;;;12.32;5.05;;;-1.20;99.90;;;;;;4894532;29;20052;-69
2022/11/19 06:36:25;;;;;;;9.30;4.18;;;-1.30;99.90;;;;;;4889338;29;20095;-69
2022/11/19 06:38:51;;;;;;;10.90;4.70;;;-1.30;99.90;;;;;;4886157;29;20091;-69
2022/11/19 06:41:17;;;;;;;10.25;5.20;;;-1.30;99.90;;;;;;4896178;29;20493;-69
2022/11/19 06:43:43;;;;;;;10.32;4.10;;;-1.30;99.90;;;;;;4876475;29;20064;-69
2022/11/19 06:46:10;;;;;;;10.77;5.32;;;-1.30;99.90;;;;;;4893330;29;20048;-69
2022/11/19 06:48:35;;;;;;;10.40;4.53;;;-1.30;99.90;;;;;;4891144;29;20045;-69
2022/11/19 06:51:01;;;;;;;13.10;5.18;;;-1.30;99.90;;;;;;4875405;29;20060;-69
2022/11/19 06:53:27;;;;;;;12.88;4.93;;;-1.30;99.90;;;;;;4874469;29;20144;-70
2022/11/19 06:55:57;;;;;;;6.72;2.88;;;-1.30;99.90;;;;;;4888142;29;20144;-70
2022/11/19 06:58:23;;;;;;;9.70;5.07;;;-1.30;99.90;;;;;;4886297;29;20485;-69
2022/11/19 07:00:48;;;;;;;9.63;4.72;;;-1.30;99.90;;;;;;4877539;29;20487;-68
2022/11/19 07:03:14;;;;;;;10.50;4.82;;;-1.30;99.90;;;;;;4877326;29;20407;-70
2022/11/19 07:05:40;;;;;;;10.98;5.03;;;-1.30;99.90;;;;;;4875115;29;20053;-69
2022/11/19 07:08:06;;;;;;;;;;;-1.30;99.90;;;;;;4877044;29;20049;-72
2022/11/19 07:10:32;;;;;;;7.72;4.13;;;-1.30;99.90;;;;;;4867012;29;19928;-69
2022/11/19 07:12:58;;;;;;;;;;;-1.30;99.90;;;;;;4888362;29;20068;-70
2022/11/19 07:15:24;;;;;;;8.77;3.83;;;-1.30;99.90;;;;;;4876493;29;20071;-69
2022/11/19 07:17:50;;;;;;;8.55;4.05;;;-1.30;99.90;;;;;;4861206;29;20101;-70
2022/11/19 07:20:16;;;;;;;11.02;4.68;;;-1.40;99.90;;;;;;4874509;29;20056;-70
2022/11/19 07:22:42;;;;;;;;;;;-1.30;99.90;;;;;;4861126;29;20052;-69
2022/11/19 07:25:11;;;;;;;10.75;4.72;;;-1.30;99.90;;;;;;4876914;29;19934;-71
2022/11/19 07:27:37;;;;;;;14.75;5.38;;;-1.30;99.90;;;;;;4890777;29;20140;-69
2022/11/19 07:30:04;;;;;;;;;;;-1.30;99.90;;;;;;4895083;29;20154;-69
2022/11/19 07:32:30;;;;;;;10.90;4.60;;;-1.30;99.90;;;;;;4879159;29;19923;-69
2022/11/19 07:34:56;;;;;;;9.88;4.63;;;-1.20;99.90;;;;;;4874839;29;20115;-69
2022/11/19 07:37:22;;;;;;;7.13;3.70;;;-1.20;99.90;;;;;;4894729;29;20044;-70
2022/11/19 07:39:48;;;;;;;;;;;-1.20;99.90;;;;;;4890120;29;20053;-69
2022/11/19 07:44:58;;;;;;;9.63;4.43;;;-1.10;99.90;;;;;;4893908;29;20520;-74
2022/11/19 07:47:23;;;;;;;11.07;4.05;;;-1.10;99.90;;;;;;4894974;29;20052;-70
2022/11/19 07:49:49;;;;;;;10.38;4.35;;;-1.10;99.90;;;;;;4898102;29;20053;-70
2022/11/19 07:52:15;;;;;;;10.18;4.85;;;-1.00;99.90;;;;;;4883085;29;20113;-71
2022/11/19 07:54:41;;;;;;;13.70;4.90;;;-1.00;99.90;;;;;;4878037;29;20044;-70
2022/11/19 07:57:06;;;;;;;9.35;4.28;;;-1.00;99.90;;;;;;4885920;29;20044;-71
2022/11/19 07:59:32;;;;;;;10.00;4.45;;;-0.90;99.90;;;;;;4887407;29;20151;-69
2022/11/19 08:01:58;;;;;;;10.50;4.45;;;-0.90;99.90;;;;;;4882650;29;20192;-70
2022/11/19 08:04:26;;;;;;;8.27;4.18;;;-0.90;99.90;;;;;;4885857;29;20604;-69
2022/11/19 08:06:52;;;;;;;9.95;4.28;;;-0.90;99.90;;;;;;4891583;29;20052;-69
2022/11/19 08:09:18;;;;;;;;;;;-0.80;99.90;;;;;;4894348;29;20059;-70
2022/11/19 08:11:43;;;;;;;9.00;4.60;;;-0.80;99.90;;;;;;4887119;29;20326;-71
2022/11/19 08:14:12;;;;;;;9.40;4.13;;;-0.70;99.90;;;;;;4886374;29;20160;-74
2022/11/19 08:19:22;;;;;;;10.63;4.35;;;-0.60;99.90;;;;;;4875102;29;20099;-69
2022/11/19 08:21:47;;;;;;;8.98;4.03;;;-0.60;99.90;;;;;;4884867;29;20076;-70
2022/11/19 08:24:15;;;;;;;12.25;4.38;;;-0.50;99.90;;;;;;4891026;29;20517;-71
2022/11/19 08:26:42;;;;;;;9.73;4.72;;;-0.20;99.90;;;;;;4896956;29;20052;-70
2022/11/19 08:29:08;;;;;;;9.20;4.20;;;-0.30;99.90;;;;;;4884100;29;20466;-69
2022/11/19 08:31:34;;;;;;;;;;;-0.30;99.90;;;;;;4889948;29;20049;-70
2022/11/19 08:34:01;;;;;;;8.02;3.78;;;-0.30;99.90;;;;;;4904255;29;19975;-70
2022/11/19 08:36:27;;;;;;;8.40;3.85;;;-0.20;99.90;;;;;;4904490;29;20130;-69
2022/11/19 08:38:56;;;;;;;9.93;4.20;;;-0.20;99.90;;;;;;4885514;29;20057;-69
2022/11/19 08:44:06;;;;;;;9.45;3.97;;;0.00;99.90;;;;;;4885571;29;20048;-71
2022/11/19 08:46:32;;;;;;;9.13;4.05;;;0.00;99.90;;;;;;4891558;29;20824;-71
2022/11/19 08:48:57;;;;;;;8.98;4.22;;;0.10;99.90;;;;;;4870265;29;20056;-69
2022/11/19 08:51:23;;;;;;;7.75;3.42;;;0.10;99.90;;;;;;4874921;29;20044;-72
2022/11/19 08:53:51;;;;;;;11.70;4.28;;;0.10;99.90;;;;;;4893525;29;20049;-69
2022/11/19 08:56:17;;;;;;;13.18;4.50;;;0.10;99.90;;;;;;4889472;29;20521;-74
2022/11/19 08:58:51;;;;;;;9.95;4.47;;;0.60;99.90;;;;;;4891279;29;20048;-74
2022/11/19 09:01:26;;;;;;;9.07;4.35;;;0.20;99.90;;;;;;4888153;29;20060;-69
2022/11/19 09:03:51;;;;;;;9.70;4.03;;;0.20;99.90;;;;;;4893169;29;20471;-71
2022/11/19 09:06:18;;;;;;;8.68;4.03;;;0.30;99.90;;;;;;4894120;29;20041;-74
2022/11/19 09:08:44;;;;;;;10.60;4.78;;;0.40;99.90;;;;;;4891553;29;20554;-70
2022/11/19 09:11:19;;;;;;;7.43;4.05;;;0.40;99.90;;;;;;4893190;29;20496;-70
2022/11/19 09:13:45;;;;;;;10.43;4.15;;;0.40;99.90;;;;;;4884896;29;20120;-71
2022/11/19 09:16:11;;;;;;;10.48;4.85;;;0.50;99.90;;;;;;4887943;29;20095;-70
2022/11/19 09:18:38;;;;;;;9.13;4.60;;;0.60;99.90;;;;;;4876201;29;20059;-71
2022/11/19 09:21:06;;;;;;;10.60;4.43;;;0.60;99.90;;;;;;4891023;29;20048;-70
2022/11/19 09:23:32;;;;;;;8.23;4.53;;;0.70;99.90;;;;;;4894279;29;20056;-70
2022/11/19 09:26:06;;;;;;;12.40;5.10;;;0.80;99.90;;;;;;4893397;29;20120;-71
2022/11/19 09:28:32;;;;;;;9.70;4.55;;;0.90;99.90;;;;;;4892512;29;20053;-70
2022/11/19 09:31:07;;;;;;;9.75;4.68;;;1.00;99.90;;;;;;4890333;29;20080;-70
2022/11/19 09:33:34;;;;;;;12.52;4.70;;;1.00;99.90;;;;;;4897073;29;20120;-70
2022/11/19 09:36:01;;;;;;;9.20;4.20;;;1.10;99.90;;;;;;4876868;29;20050;-70
2022/11/19 09:38:27;;;;;;;10.80;4.50;;;1.20;99.90;;;;;;4888919;29;20099;-69
2022/11/19 09:40:55;;;;;;;6.97;3.85;;;1.20;99.90;;;;;;4895264;29;20084;-69
2022/11/19 09:43:44;;;;;;;8.75;4.47;;;1.20;99.90;;;;;;4890361;29;20057;-73
2022/11/19 09:46:20;;;;;;;7.95;4.35;;;1.20;99.90;;;;;;4887098;29;20550;-71
2022/11/19 09:48:47;;;;;;;10.88;4.68;;;1.30;99.90;;;;;;4893512;29;20056;-70
2022/11/19 09:51:27;;;;;;;11.10;4.88;;;1.50;99.90;;;;;;4875200;29;20057;-70
2022/11/19 09:54:16;;;;;;;10.43;4.47;;;1.50;99.90;;;;;;4891356;29;20098;-75
2022/11/19 09:56:44;;;;;;;11.52;4.72;;;1.50;99.90;;;;;;4906063;29;20695;-72
2022/11/19 09:59:34;;;;;;;11.25;4.93;;;1.60;99.90;;;;;;4872378;29;20090;-70
2022/11/19 10:01:59;;;;;;;13.23;4.78;;;1.60;99.90;;;;;;4883747;29;20145;-70
2022/11/19 10:04:29;;;;;;;10.23;4.10;;;1.70;99.90;;;;;;4897351;29;20040;-71
2022/11/19 10:07:25;;;;;;;10.63;3.85;;;1.90;99.90;;;;;;4883338;29;20658;-70
2022/11/19 10:09:57;;;;;;;9.65;4.25;;;1.90;99.90;;;;;;4867686;29;20542;-70
2022/11/19 10:13:10;;;;;;;13.10;4.10;;;1.90;99.90;;;;;;4891689;29;20057;-73
2022/11/19 10:15:59;;;;;;;10.27;4.65;;;2.10;99.90;;;;;;4883626;29;20395;-70
2022/11/19 10:18:32;;;;;;;13.07;4.88;;;2.20;99.90;;;;;;4886837;29;20064;-74
2022/11/19 10:21:17;;;;;;;8.35;3.65;;;2.40;99.90;;;;;;4884409;29;20056;-69
2022/11/19 10:23:45;;;;;;;9.85;4.53;;;2.50;99.90;;;;;;4883685;29;20067;-70
2022/11/19 10:26:15;;;;;;;8.77;4.00;;;2.70;99.90;;;;;;4891324;29;20044;-70
2022/11/19 10:28:50;;;;;;;10.05;4.40;;;2.90;99.90;;;;;;4885983;29;20051;-70
2022/11/19 10:31:26;;;;;;;10.02;4.25;;;3.10;99.90;;;;;;4886961;29;20490;-71
2022/11/19 10:34:10;;;;;;;10.07;4.68;;;3.30;99.90;;;;;;4877145;29;20136;-71
2022/11/19 10:36:46;;;;;;;8.77;4.18;;;3.60;99.90;;;;;;4888918;29;20119;-71
2022/11/19 10:39:15;;;;;;;14.05;4.40;;;3.90;99.90;;;;;;4892598;29;20048;-70
2022/11/19 10:41:52;;;;;;;8.82;4.30;;;4.20;99.90;;;;;;4884019;29;20048;-71
2022/11/19 10:44:39;;;;;;;10.20;4.50;;;4.80;99.90;;;;;;4883655;29;20135;-71
2022/11/19 10:47:26;;;;;;;7.60;3.53;;;5.30;99.90;;;;;;4882535;29;20049;-71
2022/11/19 10:49:53;;;;;;;;;;;6.10;99.90;;;;;;4890499;29;20465;-72
2022/11/19 10:52:26;;;;;;;8.10;4.35;;;6.80;96.50;;;;;;4910536;29;20300;-71
2022/11/19 10:54:56;;;;;;;8.73;4.07;;;7.40;99.90;;;;;;4889179;29;20084;-71
2022/11/19 10:57:23;;;;;;;7.63;3.60;;;7.90;99.90;;;;;;4887841;29;20045;-70
2022/11/19 10:59:51;;;;;;;9.52;3.97;;;8.10;99.90;;;;;;4886948;29;20052;-70
2022/11/19 11:02:30;;;;;;;9.15;3.80;;;8.20;99.90;;;;;;4893579;29;20622;-72
2022/11/19 11:05:10;;;;;;;7.35;3.80;;;8.20;99.90;;;;;;4891197;29;20049;-71
2022/11/19 11:07:46;;;;;;;7.28;3.63;;;8.40;99.90;;;;;;4881051;29;20438;-71
2022/11/19 11:10:35;;;;;;;7.85;3.60;;;8.60;96.50;;;;;;4889139;29;20049;-70
2022/11/19 11:16:19;;;;;;;6.22;3.47;;;8.80;96.20;;;;;;4891329;29;20074;-70
2022/11/19 11:18:47;;;;;;;8.75;3.80;;;8.80;96.10;;;;;;4893342;29;20414;-70
2022/11/19 11:21:43;;;;;;;6.65;3.50;;;8.80;95.70;;;;;;4885063;29;20052;-70
2022/11/19 11:24:11;;;;;;;7.15;3.70;;;8.90;94.30;;;;;;4889507;29;21457;-71
2022/11/19 11:26:39;;;;;;;6.78;4.10;;;9.20;98.20;;;;;;4902276;29;20045;-70
2022/11/19 11:29:13;;;;;;;7.38;3.50;;;9.70;97.60;;;;;;4892821;29;20060;-70
2022/11/19 11:31:40;;;;;;;7.93;3.60;;;10.40;93.90;;;;;;4892812;29;20131;-70
2022/11/19 11:34:12;;;;;;;;;;;10.80;94.40;;;;;;4890160;29;20061;-72
2022/11/19 11:36:38;;;;;;;7.55;3.53;;;10.70;69.20;;;;;;4896671;29;20623;-70
2022/11/19 11:39:04;;;;;;;6.78;3.58;;;10.90;90.20;;;;;;4880672;29;20061;-70
2022/11/19 11:41:39;;;;;;;5.63;3.15;;;11.00;90.50;;;;;;4887434;29;20103;-69
2022/11/19 11:44:12;;;;;;;7.10;3.20;;;11.10;87.40;;;;;;4875961;29;20049;-70
2022/11/19 11:46:53;;;;;;;5.88;3.00;;;11.10;80.40;;;;;;4884351;29;20059;-81
2022/11/19 11:49:35;;;;;;;5.75;3.22;;;11.10;74.10;;;;;;4880254;29;20550;-78
2022/11/19 11:52:03;;;;;;;6.75;3.03;;;11.50;76.90;;;;;;4890873;29;20044;-70
2022/11/19 11:54:29;;;;;;;6.03;2.97;;;11.80;76.00;;;;;;4882210;29;20053;-71
2022/11/19 11:57:13;;;;;;;7.47;3.10;;;12.20;76.00;;;;;;4890876;29;20051;-72
2022/11/19 11:59:39;;;;;;;6.47;2.72;;;12.90;68.60;;;;;;4888527;29;20422;-75
2022/11/19 12:02:17;;;;;;;4.82;2.85;;;13.40;73.30;;;;;;4894899;29;20561;-72
2022/11/19 12:04:42;;;;;;;7.30;3.30;;;13.80;70.70;;;;;;4892270;29;20149;-73
2022/11/19 12:07:19;;;;;;;6.32;3.03;;;14.30;70.10;;;;;;4894280;29;20528;-73
2022/11/19 12:10:02;;;;;;;5.53;2.92;;;14.20;62.10;;;;;;4894163;29;20505;-73
2022/11/19 12:12:52;;;;;;;5.35;3.00;;;13.90;64.90;;;;;;4894248;29;20056;-73
2022/11/19 12:15:47;;;;;;;6.13;3.20;;;13.80;60.80;;;;;;4894313;29;20049;-72
2022/11/19 12:19:01;;;;;;;6.90;3.28;;;13.70;63.60;;;;;;4905020;29;20072;-72
2022/11/19 12:21:32;;;;;;;6.63;3.42;;;14.00;59.80;;;;;;4882445;29;20100;-72
2022/11/19 12:24:04;;;;;;;7.28;3.50;;;14.20;62.30;;;;;;4891834;29;20350;-73
2022/11/19 12:26:54;;;;;;;7.35;3.30;;;14.40;63.70;;;;;;4904992;29;20398;-72
2022/11/19 12:29:40;;;;;;;5.78;3.22;;;14.80;61.50;;;;;;4892491;29;20055;-73
2022/11/19 12:32:27;;;;;;;7.57;3.40;;;15.40;62.40;;;;;;4876834;29;20041;-74
2022/11/19 12:35:24;;;;;;;5.25;2.92;;;16.20;56.50;;;;;;4889362;29;20398;-73
2022/11/19 12:38:01;;;;;;;6.47;3.13;;;16.40;61.10;;;;;;4871436;29;20395;-72
2022/11/19 12:40:40;;;;;;;5.13;2.90;;;16.80;59.30;;;;;;4894337;29;20057;-72
2022/11/19 12:43:40;;;;;;;4.70;2.63;;;17.20;56.50;;;;;;4893998;29;20136;-73
2022/11/19 12:46:48;;;;;;;4.57;2.83;;;17.60;55.00;;;;;;4893851;29;20048;-73
2022/11/19 12:49:22;;;;;;;4.93;2.90;;;18.00;51.10;;;;;;4892855;29;20068;-72
2022/11/19 12:52:12;;;;;;;4.10;2.58;;;18.40;54.10;;;;;;4877310;29;20052;-73
2022/11/19 12:55:28;;;;;;;4.72;2.58;;;18.70;54.10;;;;;;4894141;29;20060;-72
2022/11/19 12:58:28;;;;;;;7.00;2.83;;;19.10;50.20;;;;;;4863188;29;20049;-72
2022/11/19 13:00:59;;;;;;;4.50;2.42;;;19.10;51.00;;;;;;4880960;29;20409;-72
2022/11/19 13:03:53;;;;;;;4.82;2.78;;;19.10;52.80;;;;;;4894338;29;20045;-71
2022/11/19 13:06:25;;;;;;;5.75;3.03;;;19.40;46.00;;;;;;4887884;29;20063;-74
2022/11/19 13:08:57;;;;;;;8.15;2.50;;;19.50;51.00;;;;;;4886887;29;20408;-72
2022/11/19 13:11:39;;;;;;;6.05;3.20;;;19.30;49.70;;;;;;4890454;29;20056;-70
2022/11/19 13:14:39;;;;;;;4.47;2.88;;;19.00;48.40;;;;;;4896392;29;20065;-71
2022/11/19 13:17:31;;;;;;;5.35;3.22;;;18.70;46.90;;;;;;4897128;29;20084;-71
2022/11/19 13:20:06;;;;;;;5.15;3.00;;;18.20;48.30;;;;;;4878960;29;20398;-72
2022/11/19 13:22:36;;;;;;;5.03;3.08;;;18.00;49.00;;;;;;4892666;29;20148;-71
2022/11/19 13:25:15;;;;;;;5.07;2.80;;;17.30;49.20;;;;;;4888331;29;20117;-71
2022/11/19 13:27:43;;;;;;;8.05;2.90;;;17.50;48.20;;;;;;4896682;29;20480;-72
2022/11/19 13:30:20;;;;;;;6.45;2.90;;;18.10;49.50;;;;;;4894866;29;20115;-71
2022/11/19 13:33:14;;;;;;;4.80;2.70;;;18.10;47.50;;;;;;4881501;29;20081;-75
2022/11/19 13:36:14;;;;;;;5.68;3.33;;;17.60;43.80;;;;;;4891106;29;20059;-72
2022/11/19 13:38:49;;;;;;;5.03;2.80;;;17.90;45.30;;;;;;4886174;29;20053;-71
2022/11/19 13:44:37;;;;;;;5.78;3.17;;;19.00;47.10;;;;;;4879045;29;20057;-71